createdAt,value
2022-12-01T00:01:29.289Z,47.45
2022-12-01T00:03:53.829Z,50.42
2022-12-01T00:06:19.681Z,50.07
2022-12-01T00:09:05.504Z,52.42
2022-12-01T00:11:29.177Z,53.30
2022-12-01T00:13:52.421Z,58.63
2022-12-01T00:16:17.829Z,55.58
2022-12-01T00:18:41.177Z,56.97
2022-12-01T00:21:04.715Z,61.30
2022-12-01T00:23:27.909Z,58.90
2022-12-01T00:25:51.179Z,61.07
2022-12-01T00:28:15.933Z,59.72
2022-12-01T00:30:39.239Z,57.03
2022-12-01T00:33:02.575Z,61.25
2022-12-01T00:35:25.890Z,65.43
2022-12-01T00:37:49.223Z,65.68
2022-12-01T00:40:15.227Z,62.40
2022-12-01T00:42:38.860Z,66.32
2022-12-01T00:45:03.693Z,71.65
2022-12-01T00:47:26.922Z,65.82
2022-12-01T00:49:52.294Z,70.95
2022-12-01T00:52:17.569Z,71.05
2022-12-01T00:54:41.179Z,79.17
2022-12-01T00:57:05.240Z,81.50
2022-12-01T00:59:28.557Z,77.80
2022-12-01T01:01:53.820Z,80.63
2022-12-01T01:04:17.111Z,90.50
2022-12-01T01:06:40.466Z,90.80
2022-12-01T01:09:03.794Z,86.45
2022-12-01T01:11:27.518Z,83.45
2022-12-01T01:13:50.950Z,89.03
2022-12-01T01:16:17.791Z,85.88
2022-12-01T01:18:42.554Z,93.43
2022-12-01T01:21:08.969Z,93.45
2022-12-01T01:23:34.469Z,82.55
2022-12-01T01:26:03.571Z,94.03
2022-12-01T01:28:27.168Z,98.43
2022-12-01T01:30:50.478Z,90.68
2022-12-01T01:33:13.820Z,101.60
2022-12-01T01:35:38.511Z,90.50
2022-12-01T01:38:01.815Z,98.07
2022-12-01T01:40:25.122Z,84.97
2022-12-01T01:42:48.554Z,89.22
2022-12-01T01:45:22.361Z,91.72
2022-12-01T01:47:46.004Z,87.80
2022-12-01T01:50:13.730Z,84.63
2022-12-01T01:52:44.657Z,100.22
2022-12-01T01:55:09.078Z,91.00
2022-12-01T01:57:35.211Z,87.55
2022-12-01T02:00:04.836Z,101.13
2022-12-01T02:02:40.589Z,86.60
2022-12-01T02:05:10.889Z,83.32
2022-12-01T02:07:34.257Z,89.30
2022-12-01T02:09:59.378Z,89.10
2022-12-01T02:12:40.550Z,83.95
2022-12-01T02:15:17.007Z,84.90
2022-12-01T02:17:49.137Z,88.32
2022-12-01T02:21:00.188Z,84.57
2022-12-01T02:24:10.386Z,91.93
2022-12-01T02:26:46.172Z,98.22
2022-12-01T02:29:52.256Z,95.63
2022-12-01T02:32:28.287Z,96.50
2022-12-01T02:34:59.679Z,99.72
2022-12-01T02:37:30.440Z,103.50
2022-12-01T02:40:01.789Z,107.68
2022-12-01T02:42:54.261Z,99.95
2022-12-01T02:45:34.533Z,96.72
2022-12-01T02:48:03.717Z,98.25
2022-12-01T02:50:29.559Z,101.10
2022-12-01T02:52:54.412Z,104.07
2022-12-01T02:55:18.073Z,92.53
2022-12-01T02:57:41.337Z,95.63
2022-12-01T03:00:06.664Z,101.27
2022-12-01T03:02:42.307Z,109.97
2022-12-01T03:05:14.039Z,102.40
2022-12-01T03:07:52.857Z,110.18
2022-12-01T03:10:25.178Z,99.93
2022-12-01T03:13:02.763Z,104.05
2022-12-01T03:15:35.792Z,96.03
2022-12-01T03:18:08.359Z,106.47
2022-12-01T03:20:39.074Z,103.80
2022-12-01T03:23:09.643Z,95.13
2022-12-01T03:25:33.812Z,95.95
2022-12-01T03:30:44.985Z,95.93
2022-12-01T03:33:15.595Z,88.07
2022-12-01T03:35:45.336Z,92.13
2022-12-01T03:38:14.853Z,91.95
2022-12-01T03:40:40.921Z,89.95
2022-12-01T03:43:08.515Z,84.70
2022-12-01T03:45:44.231Z,88.78
2022-12-01T03:48:08.170Z,89.53
2022-12-01T03:50:47.145Z,81.53
2022-12-01T03:53:19.301Z,80.80
2022-12-01T03:55:45.847Z,68.75
2022-12-01T03:58:14.057Z,67.38
2022-12-01T04:00:38.327Z,57.35
2022-12-01T04:03:04.285Z,56.17
2022-12-01T04:05:28.488Z,49.45
2022-12-01T04:07:53.353Z,45.38
2022-12-01T04:10:16.879Z,47.38
2022-12-01T04:12:39.155Z,50.15
2022-12-01T04:15:06.584Z,48.45
2022-12-01T04:17:30.742Z,46.53
2022-12-01T04:19:54.319Z,46.93
2022-12-01T04:22:17.689Z,45.80
2022-12-01T04:24:42.335Z,47.70
2022-12-01T04:27:05.946Z,47.38
2022-12-01T04:29:29.540Z,48.43
2022-12-01T04:31:52.784Z,46.53
2022-12-01T04:34:16.187Z,41.72
2022-12-01T04:36:39.453Z,48.75
2022-12-01T04:39:04.089Z,50.28
2022-12-01T04:41:29.241Z,55.57
2022-12-01T04:43:54.721Z,52.53
2022-12-01T04:46:18.117Z,55.77
2022-12-01T04:48:41.871Z,59.53
2022-12-01T04:51:06.133Z,55.13
2022-12-01T04:53:29.883Z,53.60
2022-12-01T04:55:53.471Z,53.57
2022-12-01T04:58:18.596Z,63.28
2022-12-01T05:00:42.241Z,53.97
2022-12-01T05:03:07.659Z,63.23
2022-12-01T05:05:32.989Z,63.93
2022-12-01T05:07:56.318Z,62.95
2022-12-01T05:10:19.945Z,60.47
2022-12-01T05:12:43.890Z,63.43
2022-12-01T05:15:09.994Z,62.40
2022-12-01T05:17:36.970Z,66.75
2022-12-01T05:20:18.077Z,70.05
2022-12-01T05:23:04.471Z,73.15
2022-12-01T05:25:24.589Z,74.10
2022-12-01T05:27:47.792Z,75.07
2022-12-01T05:30:13.592Z,71.57
2022-12-01T05:32:36.908Z,83.13
2022-12-01T05:35:00.216Z,77.40
2022-12-01T05:37:23.439Z,68.40
2022-12-01T05:39:47.018Z,78.20
2022-12-01T05:42:10.466Z,78.30
2022-12-01T05:44:33.696Z,73.77
2022-12-01T05:46:58.328Z,72.13
2022-12-01T05:49:21.600Z,64.20
2022-12-01T05:51:45.125Z,61.70
2022-12-01T05:54:08.376Z,65.07
2022-12-01T05:56:31.722Z,66.30
2022-12-01T05:58:54.969Z,72.82
2022-12-01T06:01:18.326Z,71.13
2022-12-01T06:03:43.047Z,70.80
2022-12-01T06:06:06.970Z,75.60
2022-12-01T06:08:30.350Z,61.77
2022-12-01T06:10:53.651Z,64.03
2022-12-01T06:13:17.036Z,60.83
2022-12-01T06:15:40.545Z,57.85
2022-12-01T06:18:03.863Z,57.22
2022-12-01T06:20:28.544Z,59.15
2022-12-01T06:22:51.835Z,51.10
2022-12-01T06:25:15.251Z,57.33
2022-12-01T06:27:38.539Z,60.05
2022-12-01T06:30:01.743Z,56.50
2022-12-01T06:32:25.089Z,59.67
2022-12-01T06:34:48.378Z,58.20
2022-12-01T06:37:15.496Z,55.30
2022-12-01T06:39:39.037Z,49.67
2022-12-01T06:42:02.521Z,51.67
2022-12-01T06:44:25.911Z,52.03
2022-12-01T06:46:52.752Z,53.97
2022-12-01T06:49:16.311Z,63.53
2022-12-01T06:51:39.771Z,60.92
2022-12-01T06:54:05.784Z,87.17
2022-12-01T06:56:29.197Z,63.50
2022-12-01T06:58:53.892Z,64.40
2022-12-01T07:01:17.760Z,56.47
2022-12-01T07:03:41.347Z,67.77
2022-12-01T07:06:05.346Z,59.57
2022-12-01T07:08:30.184Z,59.00
2022-12-01T07:11:00.313Z,58.97
2022-12-01T07:13:24.360Z,60.23
2022-12-01T07:15:51.599Z,54.20
2022-12-01T07:18:14.947Z,56.93
2022-12-01T07:20:38.314Z,58.70
2022-12-01T07:23:01.676Z,49.42
2022-12-01T07:25:24.908Z,60.50
2022-12-01T07:27:49.564Z,60.53
2022-12-01T07:30:13.706Z,58.00
2022-12-01T07:32:36.948Z,57.22
2022-12-01T07:35:00.272Z,60.33
2022-12-01T07:37:23.526Z,60.97
2022-12-01T07:39:47.076Z,64.55
2022-12-01T07:42:10.382Z,60.78
2022-12-01T07:44:35.115Z,63.42
2022-12-01T07:46:58.420Z,61.17
2022-12-01T07:49:22.010Z,54.78
2022-12-01T07:51:45.358Z,60.17
2022-12-01T07:54:08.882Z,61.53
2022-12-01T07:56:32.356Z,67.22
2022-12-01T07:58:55.890Z,64.82
2022-12-01T08:01:23.168Z,60.83
2022-12-01T08:03:46.557Z,62.17
2022-12-01T08:06:11.027Z,65.83
2022-12-01T08:08:36.898Z,60.70
2022-12-01T08:11:02.824Z,59.08
2022-12-01T08:13:26.113Z,64.13
2022-12-01T08:15:49.329Z,66.50
2022-12-01T08:18:14.432Z,66.00
2022-12-01T08:20:37.964Z,66.93
2022-12-01T08:23:02.734Z,70.40
2022-12-01T08:25:26.116Z,76.65
2022-12-01T08:27:49.526Z,73.27
2022-12-01T08:30:14.508Z,71.13
2022-12-01T08:32:37.766Z,77.00
2022-12-01T08:35:02.473Z,80.13
2022-12-01T08:37:25.762Z,70.35
2022-12-01T08:39:49.329Z,78.30
2022-12-01T08:42:13.071Z,69.23
2022-12-01T08:44:36.726Z,72.57
2022-12-01T08:47:00.086Z,72.17
2022-12-01T08:49:23.473Z,73.20
2022-12-01T08:51:48.183Z,68.77
2022-12-01T08:54:12.751Z,66.27
2022-12-01T08:56:42.948Z,69.40
2022-12-01T08:59:06.866Z,76.57
2022-12-01T09:01:30.457Z,71.03
2022-12-01T09:04:05.626Z,80.97
2022-12-01T09:06:29.633Z,73.67
2022-12-01T09:08:54.336Z,68.15
2022-12-01T09:11:20.159Z,74.88
2022-12-01T09:13:48.600Z,71.30
2022-12-01T09:16:18.217Z,71.63
2022-12-01T09:18:41.863Z,67.30
2022-12-01T09:21:12.418Z,74.03
2022-12-01T09:23:35.734Z,67.63
2022-12-01T09:26:02.118Z,66.72
2022-12-01T09:28:25.479Z,68.22
2022-12-01T09:30:48.884Z,81.28
2022-12-01T09:33:12.400Z,74.15
2022-12-01T09:35:35.790Z,79.80
2022-12-01T09:37:59.879Z,81.27
2022-12-01T09:40:36.497Z,91.95
2022-12-01T09:43:04.717Z,77.95
2022-12-01T09:45:32.638Z,79.75
2022-12-01T09:47:59.166Z,79.40
2022-12-01T09:50:25.733Z,82.93
2022-12-01T09:52:53.188Z,80.47
2022-12-01T09:55:18.939Z,77.40
2022-12-01T09:57:43.559Z,82.15
2022-12-01T10:00:17.027Z,77.13
2022-12-01T10:02:44.457Z,76.47
2022-12-01T10:05:14.670Z,79.28
2022-12-01T10:07:45.560Z,81.75
2022-12-01T10:10:15.422Z,78.75
2022-12-01T10:12:39.345Z,69.60
2022-12-01T10:15:23.698Z,70.78
2022-12-01T10:18:05.629Z,67.03
2022-12-01T10:20:37.983Z,62.95
2022-12-01T10:23:34.961Z,57.97
2022-12-01T10:26:00.738Z,65.43
2022-12-01T10:28:51.553Z,63.63
2022-12-01T10:31:21.879Z,59.10
2022-12-01T10:34:00.301Z,57.22
2022-12-01T10:36:24.088Z,58.70
2022-12-01T10:38:47.472Z,63.40
2022-12-01T10:41:15.704Z,65.47
2022-12-01T10:43:42.949Z,69.47
2022-12-01T10:46:20.813Z,65.47
2022-12-01T10:48:55.822Z,77.63
2022-12-01T10:51:20.564Z,74.63
2022-12-01T10:53:43.946Z,71.45
2022-12-01T10:56:12.743Z,68.13
2022-12-01T10:58:50.676Z,64.72
2022-12-01T11:01:25.464Z,67.07
2022-12-01T11:03:54.579Z,61.20
2022-12-01T11:06:24.984Z,61.17
2022-12-01T11:08:54.678Z,61.08
2022-12-01T11:11:29.184Z,65.68
2022-12-01T11:13:53.125Z,63.08
2022-12-01T11:16:38.932Z,60.45
2022-12-01T11:19:14.902Z,62.83
2022-12-01T11:21:48.830Z,66.88
2022-12-01T11:24:29.155Z,67.10
2022-12-01T11:26:52.542Z,65.97
2022-12-01T11:29:30.787Z,62.90
2022-12-01T11:31:55.953Z,69.80
2022-12-01T11:34:23.745Z,63.80
2022-12-01T11:36:50.976Z,64.03
2022-12-01T11:39:25.883Z,69.03
2022-12-01T11:41:49.250Z,62.35
2022-12-01T11:44:50.943Z,73.03
2022-12-01T11:47:23.075Z,77.10
2022-12-01T11:49:55.543Z,73.65
2022-12-01T11:52:24.956Z,74.68
2022-12-01T11:54:58.608Z,72.57
2022-12-01T11:57:37.159Z,77.15
2022-12-01T12:00:00.470Z,70.22
2022-12-01T12:02:37.909Z,76.43
2022-12-01T12:05:34.230Z,70.85
2022-12-01T12:08:09.034Z,69.53
2022-12-01T12:10:59.527Z,66.82
2022-12-01T12:13:57.850Z,60.50
2022-12-01T12:16:33.682Z,59.58
2022-12-01T12:19:18.532Z,65.93
2022-12-01T12:21:59.329Z,62.60
2022-12-01T12:24:42.805Z,62.87
2022-12-01T12:27:15.982Z,56.85
2022-12-01T12:30:03.313Z,59.55
2022-12-01T12:32:49.332Z,57.40
2022-12-01T12:35:31.172Z,62.78
2022-12-01T12:38:11.824Z,58.47
2022-12-01T12:40:43.779Z,58.47
2022-12-01T12:43:23.615Z,55.40
2022-12-01T12:46:02.022Z,58.38
2022-12-01T12:49:03.594Z,55.50
2022-12-01T12:51:34.422Z,54.22
2022-12-01T12:54:18.050Z,53.20
2022-12-01T12:56:47.473Z,59.80
2022-12-01T12:59:17.110Z,60.85
2022-12-01T13:01:45.818Z,60.30
2022-12-01T13:04:13.972Z,57.70
2022-12-01T13:06:41.930Z,56.42
2022-12-01T13:09:12.564Z,59.28
2022-12-01T13:11:43.950Z,53.33
2022-12-01T13:14:14.448Z,60.50
2022-12-01T13:16:44.347Z,53.00
2022-12-01T13:19:16.265Z,59.05
2022-12-01T13:21:44.361Z,54.28
2022-12-01T13:24:10.859Z,56.78
2022-12-01T13:26:37.670Z,59.20
2022-12-01T13:29:01.192Z,61.53
2022-12-01T13:31:24.922Z,57.20
2022-12-01T13:33:58.952Z,53.13
2022-12-01T13:36:45.671Z,55.10
2022-12-01T13:39:18.920Z,53.38
2022-12-01T13:41:45.167Z,54.83
2022-12-01T13:44:22.287Z,54.17
2022-12-01T13:46:58.606Z,56.47
2022-12-01T13:49:42.563Z,56.67
2022-12-01T13:52:31.931Z,58.28
2022-12-01T13:55:27.266Z,59.17
2022-12-01T13:58:42.628Z,62.05
2022-12-01T14:01:43.460Z,61.28
2022-12-01T14:04:45.823Z,58.97
2022-12-01T14:07:36.566Z,63.00
2022-12-01T14:10:24.340Z,57.22
2022-12-01T14:12:48.083Z,61.80
2022-12-01T14:15:36.432Z,59.08
2022-12-01T14:18:05.200Z,61.08
2022-12-01T14:20:37.817Z,59.40
2022-12-01T14:23:14.195Z,64.68
2022-12-01T14:25:40.125Z,59.97
2022-12-01T14:28:05.709Z,60.83
2022-12-01T14:31:15.561Z,59.90
2022-12-01T14:33:54.448Z,64.50
2022-12-01T14:36:32.195Z,61.60
2022-12-01T14:39:04.428Z,65.53
2022-12-01T14:41:33.610Z,67.43
2022-12-01T14:44:06.596Z,66.30
2022-12-01T14:46:45.177Z,68.65
2022-12-01T14:49:17.803Z,67.13
2022-12-01T14:51:46.882Z,66.53
2022-12-01T14:54:21.570Z,64.73
2022-12-01T14:56:49.543Z,66.82
2022-12-01T14:59:21.879Z,70.73
2022-12-01T15:01:45.361Z,74.10
2022-12-01T15:04:09.028Z,77.55
2022-12-01T15:06:35.646Z,74.88
2022-12-01T15:12:02.155Z,78.30
2022-12-01T15:14:37.406Z,75.63
2022-12-01T15:17:02.662Z,79.05
2022-12-01T15:19:35.935Z,77.45
2022-12-01T15:22:00.399Z,74.72
2022-12-01T15:24:26.406Z,71.97
2022-12-01T15:26:56.841Z,73.40
2022-12-01T15:29:28.267Z,71.00
2022-12-01T15:31:54.397Z,78.53
2022-12-01T15:34:20.644Z,75.90
2022-12-01T15:36:44.669Z,78.30
2022-12-01T15:39:12.635Z,77.65
2022-12-01T15:41:40.191Z,77.97
2022-12-01T15:44:05.550Z,71.47
2022-12-01T15:46:32.169Z,77.03
2022-12-01T15:49:08.447Z,75.80
2022-12-01T15:51:37.688Z,75.43
2022-12-01T15:54:02.695Z,74.28
2022-12-01T15:56:29.402Z,77.50
2022-12-01T15:58:53.584Z,79.45
2022-12-01T16:01:19.405Z,70.68
2022-12-01T16:04:00.262Z,76.85
2022-12-01T16:06:26.565Z,74.68
2022-12-01T16:08:59.302Z,79.75
2022-12-01T16:11:23.691Z,78.57
2022-12-01T16:13:50.821Z,77.15
2022-12-01T16:16:38.606Z,79.78
2022-12-01T16:19:06.667Z,73.43
2022-12-01T16:21:32.453Z,75.82
2022-12-01T16:24:02.286Z,76.95
2022-12-01T16:26:25.657Z,82.25
2022-12-01T16:28:48.953Z,81.93
2022-12-01T16:31:20.150Z,79.68
2022-12-01T16:33:43.544Z,79.85
2022-12-01T16:36:09.197Z,79.00
2022-12-01T16:38:32.413Z,81.55
2022-12-01T16:40:58.356Z,84.38
2022-12-01T16:43:25.187Z,83.97
2022-12-01T16:45:52.829Z,87.18
2022-12-01T16:48:19.334Z,87.78
2022-12-01T16:50:42.704Z,85.97
2022-12-01T16:53:07.416Z,83.40
2022-12-01T16:55:39.237Z,82.82
2022-12-01T16:58:02.975Z,82.03
2022-12-01T17:00:27.424Z,81.78
2022-12-01T17:02:52.628Z,78.07
2022-12-01T17:05:16.280Z,82.53
2022-12-01T17:07:39.819Z,78.50
2022-12-01T17:10:05.286Z,83.43
2022-12-01T17:12:28.532Z,84.55
2022-12-01T17:14:51.941Z,82.82
2022-12-01T17:17:15.589Z,90.07
2022-12-01T17:19:38.947Z,82.03
2022-12-01T17:22:02.077Z,76.13
2022-12-01T17:24:25.917Z,81.73
2022-12-01T17:26:50.525Z,83.60
2022-12-01T17:29:14.156Z,89.53
2022-12-01T17:31:37.522Z,85.80
2022-12-01T17:34:01.074Z,88.28
2022-12-01T17:36:24.399Z,84.38
2022-12-01T17:38:48.865Z,89.75
2022-12-01T17:41:14.755Z,93.82
2022-12-01T17:43:40.801Z,85.63
2022-12-01T17:46:05.583Z,87.90
2022-12-01T17:48:29.970Z,89.70
2022-12-01T17:50:53.393Z,84.22
2022-12-01T17:53:16.639Z,100.20
2022-12-01T17:55:40.760Z,86.22
2022-12-01T17:58:04.031Z,84.10
2022-12-01T18:00:29.097Z,88.57
2022-12-01T18:02:52.425Z,90.90
2022-12-01T18:05:15.976Z,87.30
2022-12-01T18:07:39.284Z,83.67
2022-12-01T18:10:02.960Z,92.30
2022-12-01T18:12:26.270Z,87.13
2022-12-01T18:14:49.810Z,88.80
2022-12-01T18:17:14.742Z,92.53
2022-12-01T18:19:38.172Z,84.97
2022-12-01T18:22:01.620Z,90.20
2022-12-01T18:24:24.841Z,92.97
2022-12-01T18:26:48.217Z,93.07
2022-12-01T18:29:16.023Z,83.23
2022-12-01T18:31:39.537Z,86.72
2022-12-01T18:34:06.832Z,81.03
2022-12-01T18:36:31.353Z,81.00
2022-12-01T18:38:58.501Z,90.18
2022-12-01T18:41:21.955Z,92.93
2022-12-01T18:43:46.170Z,94.38
2022-12-01T18:46:09.794Z,93.47
2022-12-01T18:48:34.933Z,99.07
2022-12-01T18:51:03.850Z,86.15
2022-12-01T18:53:27.147Z,88.67
2022-12-01T18:55:50.419Z,92.53
2022-12-01T18:58:14.449Z,92.03
2022-12-01T19:00:38.911Z,83.05
2022-12-01T19:03:03.039Z,79.45
2022-12-01T19:05:27.098Z,87.40
2022-12-01T19:07:54.436Z,84.60
2022-12-01T19:10:17.866Z,84.13
2022-12-01T19:12:41.636Z,94.05
2022-12-01T19:15:05.938Z,86.25
2022-12-01T19:17:29.289Z,85.22
2022-12-01T19:19:52.581Z,85.07
2022-12-01T19:22:15.855Z,89.00
2022-12-01T19:24:42.119Z,89.22
2022-12-01T19:27:08.961Z,91.93
2022-12-01T19:29:32.290Z,82.25
2022-12-01T19:31:56.784Z,82.15
2022-12-01T19:34:20.346Z,75.43
2022-12-01T19:36:43.654Z,76.38
2022-12-01T19:39:08.077Z,73.20
2022-12-01T19:41:34.740Z,77.22
2022-12-01T19:43:59.255Z,72.35
2022-12-01T19:46:27.041Z,64.63
2022-12-01T19:48:56.316Z,64.50
2022-12-01T19:51:21.553Z,63.43
2022-12-01T19:53:44.988Z,69.35
2022-12-01T19:56:08.519Z,69.10
2022-12-01T19:58:35.080Z,70.13
2022-12-01T20:01:04.847Z,69.38
2022-12-01T20:03:28.203Z,68.60
2022-12-01T20:05:51.452Z,71.35
2022-12-01T20:08:14.739Z,66.10
2022-12-01T20:10:38.010Z,71.93
2022-12-01T20:13:01.413Z,66.60
2022-12-01T20:15:26.289Z,72.82
2022-12-01T20:17:50.226Z,72.20
2022-12-01T20:20:15.793Z,74.57
2022-12-01T20:22:39.779Z,71.57
2022-12-01T20:25:04.478Z,73.90
2022-12-01T20:27:27.888Z,72.25
2022-12-01T20:29:51.212Z,71.93
2022-12-01T20:32:23.335Z,76.07
2022-12-01T20:34:47.096Z,73.00
2022-12-01T20:37:10.905Z,78.90
2022-12-01T20:39:36.829Z,89.37
2022-12-01T20:42:00.087Z,86.30
2022-12-01T20:44:23.869Z,86.30
2022-12-01T20:46:48.032Z,89.93
2022-12-01T20:49:13.196Z,92.43
2022-12-01T20:51:36.623Z,87.40
2022-12-01T20:54:26.788Z,83.27
2022-12-01T20:56:43.717Z,85.43
2022-12-01T20:59:07.054Z,81.60
2022-12-01T21:01:30.365Z,84.67
2022-12-01T21:03:55.469Z,88.63
2022-12-01T21:06:21.077Z,83.03
2022-12-01T21:08:47.692Z,82.53
2022-12-01T21:11:44.489Z,84.80
2022-12-01T21:14:07.521Z,85.23
2022-12-01T21:16:35.198Z,78.40
2022-12-01T21:19:06.330Z,78.67
2022-12-01T21:21:33.487Z,75.73
2022-12-01T21:24:14.842Z,73.03
2022-12-01T21:26:40.803Z,72.00
2022-12-01T21:29:17.644Z,70.57
2022-12-01T21:31:40.932Z,65.30
2022-12-01T21:34:06.622Z,67.37
2022-12-01T21:36:32.422Z,61.70
2022-12-01T21:39:02.953Z,59.27
2022-12-01T21:41:28.664Z,61.63
2022-12-01T21:43:52.413Z,65.77
2022-12-01T21:46:18.622Z,61.93
2022-12-01T21:48:42.133Z,65.93
2022-12-01T21:51:22.836Z,60.73
2022-12-01T21:53:48.485Z,56.17
2022-12-01T21:56:21.299Z,55.83
2022-12-01T21:58:45.850Z,56.93
2022-12-01T22:01:21.066Z,54.40
2022-12-01T22:03:46.323Z,57.17
2022-12-01T22:06:29.914Z,57.67
2022-12-01T22:08:57.193Z,59.83
2022-12-01T22:11:23.214Z,61.30
2022-12-01T22:13:49.978Z,57.70
2022-12-01T22:16:18.033Z,61.67
2022-12-01T22:18:45.766Z,61.17
2022-12-01T22:21:36.053Z,63.57
2022-12-01T22:24:15.680Z,63.37
2022-12-01T22:26:41.729Z,60.67
2022-12-01T22:29:30.224Z,68.30
2022-12-01T22:32:07.694Z,58.70
2022-12-01T22:34:31.001Z,61.37
2022-12-01T22:36:55.327Z,58.57
2022-12-01T22:39:31.014Z,63.23
2022-12-01T22:41:59.327Z,66.80
2022-12-01T22:44:22.638Z,62.27
2022-12-01T22:46:45.970Z,63.23
2022-12-01T22:49:19.531Z,61.27
2022-12-01T22:51:46.345Z,62.63
2022-12-01T22:54:36.515Z,63.00
2022-12-01T22:57:32.999Z,62.10
2022-12-01T22:59:56.876Z,55.10
2022-12-01T23:02:23.930Z,64.30
2022-12-01T23:04:47.691Z,63.33
2022-12-01T23:07:32.299Z,58.30
2022-12-01T23:09:59.338Z,61.90
2022-12-01T23:12:28.803Z,63.33
2022-12-01T23:14:55.637Z,65.20
2022-12-01T23:17:24.275Z,64.13
2022-12-01T23:19:48.415Z,67.30
2022-12-01T23:22:12.405Z,65.63
2022-12-01T23:24:35.704Z,67.03
2022-12-01T23:27:00.327Z,67.03
2022-12-01T23:29:23.818Z,71.47
2022-12-01T23:31:48.466Z,67.43
2022-12-01T23:34:16.666Z,67.93
2022-12-01T23:36:40.117Z,73.40
2022-12-01T23:39:11.622Z,70.70
2022-12-01T23:41:38.741Z,69.53
2022-12-01T23:44:14.671Z,74.00
2022-12-01T23:46:38.382Z,68.93
2022-12-01T23:49:05.023Z,73.43
2022-12-01T23:51:32.490Z,67.83
2022-12-01T23:53:58.485Z,68.33
2022-12-01T23:56:24.719Z,73.97
2022-12-01T23:58:48.271Z,70.70
